sensor_id;sensor_type;location;lat;lon;timestamp;temperature;humidity
68139;DHT22;54940;50.842;4.410;2022-08-01T00:01:15;21.20;99.90
68139;DHT22;54940;50.842;4.410;2022-08-01T00:03:41;21.30;99.90
68139;DHT22;54940;50.842;4.410;2022-08-01T00:06:07;21.30;99.90
68139;DHT22;54940;50.842;4.410;2022-08-01T00:08:33;21.20;99.90
68139;DHT22;54940;50.842;4.410;2022-08-01T00:10:59;21.10;99.90
68139;DHT22;54940;50.842;4.410;2022-08-01T00:13:24;21.10;99.90
68139;DHT22;54940;50.842;4.410;2022-08-01T00:15:50;21.10;99.90
68139;DHT22;54940;50.842;4.410;2022-08-01T00:18:16;21.10;99.90
68139;DHT22;54940;50.842;4.410;2022-08-01T00:20:41;21.10;99.90
68139;DHT22;54940;50.842;4.410;2022-08-01T00:23:07;21.10;99.90
68139;DHT22;54940;50.842;4.410;2022-08-01T00:25:33;21.10;99.90
68139;DHT22;54940;50.842;4.410;2022-08-01T00:27:58;21.00;99.90
68139;DHT22;54940;50.842;4.410;2022-08-01T00:30:24;21.00;99.90
68139;DHT22;54940;50.842;4.410;2022-08-01T00:32:49;21.10;99.90
68139;DHT22;54940;50.842;4.410;2022-08-01T00:35:15;21.10;99.90
68139;DHT22;54940;50.842;4.410;2022-08-01T00:37:41;21.10;99.90
68139;DHT22;54940;50.842;4.410;2022-08-01T00:40:07;21.20;99.90
68139;DHT22;54940;50.842;4.410;2022-08-01T00:42:33;21.20;99.90
68139;DHT22;54940;50.842;4.410;2022-08-01T00:44:59;21.10;99.90
68139;DHT22;54940;50.842;4.410;2022-08-01T00:47:24;21.10;99.90
68139;DHT22;54940;50.842;4.410;2022-08-01T00:49:50;21.10;99.90
68139;DHT22;54940;50.842;4.410;2022-08-01T00:52:16;21.10;99.90
68139;DHT22;54940;50.842;4.410;2022-08-01T00:54:42;21.10;99.90
68139;DHT22;54940;50.842;4.410;2022-08-01T00:57:08;21.10;99.90
68139;DHT22;54940;50.842;4.410;2022-08-01T00:59:34;21.10;99.90
68139;DHT22;54940;50.842;4.410;2022-08-01T01:02:00;21.10;99.90
68139;DHT22;54940;50.842;4.410;2022-08-01T01:04:25;21.00;99.90
68139;DHT22;54940;50.842;4.410;2022-08-01T01:10:00;20.80;99.90
68139;DHT22;54940;50.842;4.410;2022-08-01T01:12:38;20.90;99.90
68139;DHT22;54940;50.842;4.410;2022-08-01T01:17:57;20.90;99.90
68139;DHT22;54940;50.842;4.410;2022-08-01T01:20:31;20.90;99.90
68139;DHT22;54940;50.842;4.410;2022-08-01T01:23:12;20.90;99.90
68139;DHT22;54940;50.842;4.410;2022-08-01T01:25:54;21.00;99.90
68139;DHT22;54940;50.842;4.410;2022-08-01T01:31:14;20.90;99.90
68139;DHT22;54940;50.842;4.410;2022-08-01T01:33:42;20.80;99.90
68139;DHT22;54940;50.842;4.410;2022-08-01T01:36:09;20.80;99.90
68139;DHT22;54940;50.842;4.410;2022-08-01T01:38:40;20.80;99.90
68139;DHT22;54940;50.842;4.410;2022-08-01T01:41:08;20.80;99.90
68139;DHT22;54940;50.842;4.410;2022-08-01T01:43:36;20.80;99.90
68139;DHT22;54940;50.842;4.410;2022-08-01T01:46:04;20.70;99.90
68139;DHT22;54940;50.842;4.410;2022-08-01T01:48:31;20.80;99.90
68139;DHT22;54940;50.842;4.410;2022-08-01T01:50:59;20.80;99.90
68139;DHT22;54940;50.842;4.410;2022-08-01T01:53:27;20.80;99.90
68139;DHT22;54940;50.842;4.410;2022-08-01T01:55:55;20.70;99.90
68139;DHT22;54940;50.842;4.410;2022-08-01T01:58:22;20.70;99.90
68139;DHT22;54940;50.842;4.410;2022-08-01T02:00:50;20.70;99.90
68139;DHT22;54940;50.842;4.410;2022-08-01T02:03:17;20.60;99.90
68139;DHT22;54940;50.842;4.410;2022-08-01T02:05:44;20.70;99.90
68139;DHT22;54940;50.842;4.410;2022-08-01T02:08:10;20.70;99.90
68139;DHT22;54940;50.842;4.410;2022-08-01T02:10:39;20.70;99.90
68139;DHT22;54940;50.842;4.410;2022-08-01T02:13:05;20.70;99.90
68139;DHT22;54940;50.842;4.410;2022-08-01T02:15:33;20.70;99.90
68139;DHT22;54940;50.842;4.410;2022-08-01T02:18:01;20.70;99.90
68139;DHT22;54940;50.842;4.410;2022-08-01T02:20:29;20.80;99.90
68139;DHT22;54940;50.842;4.410;2022-08-01T02:23:05;20.80;99.90
68139;DHT22;54940;50.842;4.410;2022-08-01T02:25:36;20.80;99.90
68139;DHT22;54940;50.842;4.410;2022-08-01T02:28:07;20.90;99.90
68139;DHT22;54940;50.842;4.410;2022-08-01T02:30:36;20.90;99.90
68139;DHT22;54940;50.842;4.410;2022-08-01T02:33:16;20.70;99.90
68139;DHT22;54940;50.842;4.410;2022-08-01T02:35:45;20.60;99.90
68139;DHT22;54940;50.842;4.410;2022-08-01T02:38:12;20.60;99.90
68139;DHT22;54940;50.842;4.410;2022-08-01T02:40:41;20.60;99.90
68139;DHT22;54940;50.842;4.410;2022-08-01T02:43:09;20.60;99.90
68139;DHT22;54940;50.842;4.410;2022-08-01T02:45:39;20.70;99.90
68139;DHT22;54940;50.842;4.410;2022-08-01T02:48:12;20.70;99.90
68139;DHT22;54940;50.842;4.410;2022-08-01T02:50:42;20.70;99.90
68139;DHT22;54940;50.842;4.410;2022-08-01T02:53:08;20.70;99.90
68139;DHT22;54940;50.842;4.410;2022-08-01T02:55:35;20.70;99.90
68139;DHT22;54940;50.842;4.410;2022-08-01T02:58:03;20.80;99.90
68139;DHT22;54940;50.842;4.410;2022-08-01T03:00:30;20.80;99.90
68139;DHT22;54940;50.842;4.410;2022-08-01T03:02:57;20.80;99.90
68139;DHT22;54940;50.842;4.410;2022-08-01T03:05:25;20.80;99.90
68139;DHT22;54940;50.842;4.410;2022-08-01T03:07:53;20.80;99.90
68139;DHT22;54940;50.842;4.410;2022-08-01T03:10:20;20.70;99.90
68139;DHT22;54940;50.842;4.410;2022-08-01T03:12:46;20.70;99.90
68139;DHT22;54940;50.842;4.410;2022-08-01T03:15:15;20.80;99.90
68139;DHT22;54940;50.842;4.410;2022-08-01T03:17:43;20.80;99.90
68139;DHT22;54940;50.842;4.410;2022-08-01T03:20:13;20.60;99.90
68139;DHT22;54940;50.842;4.410;2022-08-01T03:22:40;20.60;99.90
68139;DHT22;54940;50.842;4.410;2022-08-01T03:25:08;20.60;99.90
68139;DHT22;54940;50.842;4.410;2022-08-01T03:27:36;20.70;99.90
68139;DHT22;54940;50.842;4.410;2022-08-01T03:30:03;20.70;99.90
68139;DHT22;54940;50.842;4.410;2022-08-01T03:32:30;20.60;99.90
68139;DHT22;54940;50.842;4.410;2022-08-01T03:34:57;20.60;99.90
68139;DHT22;54940;50.842;4.410;2022-08-01T03:37:27;20.70;99.90
68139;DHT22;54940;50.842;4.410;2022-08-01T03:40:28;20.60;99.90
68139;DHT22;54940;50.842;4.410;2022-08-01T03:42:59;20.60;99.90
68139;DHT22;54940;50.842;4.410;2022-08-01T03:45:28;20.60;99.90
68139;DHT22;54940;50.842;4.410;2022-08-01T03:47:59;20.60;99.90
68139;DHT22;54940;50.842;4.410;2022-08-01T03:50:27;20.60;99.90
68139;DHT22;54940;50.842;4.410;2022-08-01T03:52:54;20.60;99.90
68139;DHT22;54940;50.842;4.410;2022-08-01T03:55:22;20.60;99.90
68139;DHT22;54940;50.842;4.410;2022-08-01T03:57:49;20.60;99.90
68139;DHT22;54940;50.842;4.410;2022-08-01T04:00:16;20.50;99.90
68139;DHT22;54940;50.842;4.410;2022-08-01T04:02:48;20.60;99.90
68139;DHT22;54940;50.842;4.410;2022-08-01T04:05:15;20.80;99.90
68139;DHT22;54940;50.842;4.410;2022-08-01T04:07:45;20.90;99.90
68139;DHT22;54940;50.842;4.410;2022-08-01T04:10:12;20.80;99.90
68139;DHT22;54940;50.842;4.410;2022-08-01T04:12:38;20.70;99.90
68139;DHT22;54940;50.842;4.410;2022-08-01T04:15:04;20.80;99.90
68139;DHT22;54940;50.842;4.410;2022-08-01T04:17:31;20.70;99.90
68139;DHT22;54940;50.842;4.410;2022-08-01T04:19:56;20.70;99.90
68139;DHT22;54940;50.842;4.410;2022-08-01T04:22:22;20.70;99.90
68139;DHT22;54940;50.842;4.410;2022-08-01T04:24:50;20.70;99.90
68139;DHT22;54940;50.842;4.410;2022-08-01T04:27:28;20.90;99.90
68139;DHT22;54940;50.842;4.410;2022-08-01T04:29:57;20.80;99.90
68139;DHT22;54940;50.842;4.410;2022-08-01T04:32:26;20.80;99.90
68139;DHT22;54940;50.842;4.410;2022-08-01T04:34:55;20.80;99.90
68139;DHT22;54940;50.842;4.410;2022-08-01T04:37:23;20.70;99.90
68139;DHT22;54940;50.842;4.410;2022-08-01T04:39:52;20.70;99.90
68139;DHT22;54940;50.842;4.410;2022-08-01T04:42:18;20.70;99.90
68139;DHT22;54940;50.842;4.410;2022-08-01T04:44:44;20.70;99.90
68139;DHT22;54940;50.842;4.410;2022-08-01T04:47:11;20.80;99.90
68139;DHT22;54940;50.842;4.410;2022-08-01T04:49:37;20.50;99.90
68139;DHT22;54940;50.842;4.410;2022-08-01T04:52:03;20.60;99.90
68139;DHT22;54940;50.842;4.410;2022-08-01T04:54:33;20.50;99.90
68139;DHT22;54940;50.842;4.410;2022-08-01T04:57:06;20.70;99.90
68139;DHT22;54940;50.842;4.410;2022-08-01T04:59:37;20.70;99.90
68139;DHT22;54940;50.842;4.410;2022-08-01T05:02:08;20.80;99.90
68139;DHT22;54940;50.842;4.410;2022-08-01T05:04:34;20.70;99.90
68139;DHT22;54940;50.842;4.410;2022-08-01T05:07:00;20.70;99.90
68139;DHT22;54940;50.842;4.410;2022-08-01T05:09:26;20.70;99.90
68139;DHT22;54940;50.842;4.410;2022-08-01T05:11:52;20.80;99.90
68139;DHT22;54940;50.842;4.410;2022-08-01T05:14:18;20.90;99.90
68139;DHT22;54940;50.842;4.410;2022-08-01T05:16:45;20.90;99.90
68139;DHT22;54940;50.842;4.410;2022-08-01T05:19:11;20.90;99.90
68139;DHT22;54940;50.842;4.410;2022-08-01T05:21:37;20.90;99.90
68139;DHT22;54940;50.842;4.410;2022-08-01T05:24:04;20.90;99.90
68139;DHT22;54940;50.842;4.410;2022-08-01T05:26:30;21.00;99.90
68139;DHT22;54940;50.842;4.410;2022-08-01T05:28:55;21.00;99.90
68139;DHT22;54940;50.842;4.410;2022-08-01T05:31:21;20.90;99.90
68139;DHT22;54940;50.842;4.410;2022-08-01T05:33:47;21.00;99.90
68139;DHT22;54940;50.842;4.410;2022-08-01T05:36:12;21.00;99.90
68139;DHT22;54940;50.842;4.410;2022-08-01T05:38:38;21.10;99.90
68139;DHT22;54940;50.842;4.410;2022-08-01T05:41:04;21.00;99.90
68139;DHT22;54940;50.842;4.410;2022-08-01T05:43:30;21.00;99.90
68139;DHT22;54940;50.842;4.410;2022-08-01T05:45:56;21.00;99.90
68139;DHT22;54940;50.842;4.410;2022-08-01T05:48:22;20.90;99.90
68139;DHT22;54940;50.842;4.410;2022-08-01T05:50:47;20.80;99.90
68139;DHT22;54940;50.842;4.410;2022-08-01T05:53:13;20.80;99.90
68139;DHT22;54940;50.842;4.410;2022-08-01T05:55:39;20.90;99.90
68139;DHT22;54940;50.842;4.410;2022-08-01T05:58:05;20.90;99.90
68139;DHT22;54940;50.842;4.410;2022-08-01T06:00:30;20.90;99.90
68139;DHT22;54940;50.842;4.410;2022-08-01T06:02:57;20.90;99.90
68139;DHT22;54940;50.842;4.410;2022-08-01T06:05:22;20.80;99.90
68139;DHT22;54940;50.842;4.410;2022-08-01T06:07:48;20.90;99.90
68139;DHT22;54940;50.842;4.410;2022-08-01T06:10:13;21.00;99.90
68139;DHT22;54940;50.842;4.410;2022-08-01T06:12:39;21.00;99.90
68139;DHT22;54940;50.842;4.410;2022-08-01T06:15:07;21.10;99.90
68139;DHT22;54940;50.842;4.410;2022-08-01T06:17:33;21.20;99.90
68139;DHT22;54940;50.842;4.410;2022-08-01T06:19:59;21.10;99.90
68139;DHT22;54940;50.842;4.410;2022-08-01T06:22:25;21.10;99.90
68139;DHT22;54940;50.842;4.410;2022-08-01T06:24:51;21.20;99.90
68139;DHT22;54940;50.842;4.410;2022-08-01T06:27:17;21.20;99.90
68139;DHT22;54940;50.842;4.410;2022-08-01T06:29:42;21.10;99.90
68139;DHT22;54940;50.842;4.410;2022-08-01T06:32:09;21.00;99.90
68139;DHT22;54940;50.842;4.410;2022-08-01T06:34:35;21.00;99.90
68139;DHT22;54940;50.842;4.410;2022-08-01T06:37:01;20.90;99.90
68139;DHT22;54940;50.842;4.410;2022-08-01T06:39:26;20.90;99.90
68139;DHT22;54940;50.842;4.410;2022-08-01T06:41:52;21.00;99.90
68139;DHT22;54940;50.842;4.410;2022-08-01T06:44:18;21.10;99.90
68139;DHT22;54940;50.842;4.410;2022-08-01T06:46:43;21.20;99.90
68139;DHT22;54940;50.842;4.410;2022-08-01T06:49:09;21.30;99.90
68139;DHT22;54940;50.842;4.410;2022-08-01T06:51:35;21.30;99.90
68139;DHT22;54940;50.842;4.410;2022-08-01T06:54:00;21.30;99.90
68139;DHT22;54940;50.842;4.410;2022-08-01T06:56:26;21.30;99.90
68139;DHT22;54940;50.842;4.410;2022-08-01T06:58:52;21.40;99.90
68139;DHT22;54940;50.842;4.410;2022-08-01T07:01:17;21.40;99.90
68139;DHT22;54940;50.842;4.410;2022-08-01T07:03:43;21.50;99.90
68139;DHT22;54940;50.842;4.410;2022-08-01T07:06:09;21.50;99.90
68139;DHT22;54940;50.842;4.410;2022-08-01T07:08:36;21.50;99.90
68139;DHT22;54940;50.842;4.410;2022-08-01T07:11:01;21.50;99.90
68139;DHT22;54940;50.842;4.410;2022-08-01T07:13:28;21.50;99.90
68139;DHT22;54940;50.842;4.410;2022-08-01T07:15:56;21.50;99.90
68139;DHT22;54940;50.842;4.410;2022-08-01T07:18:22;21.50;99.90
68139;DHT22;54940;50.842;4.410;2022-08-01T07:20:49;21.60;99.90
68139;DHT22;54940;50.842;4.410;2022-08-01T07:23:15;21.50;99.90
68139;DHT22;54940;50.842;4.410;2022-08-01T07:25:41;21.50;99.90
68139;DHT22;54940;50.842;4.410;2022-08-01T07:28:07;21.60;99.90
68139;DHT22;54940;50.842;4.410;2022-08-01T07:30:33;21.70;99.90
68139;DHT22;54940;50.842;4.410;2022-08-01T07:32:59;21.70;99.90
68139;DHT22;54940;50.842;4.410;2022-08-01T07:35:25;21.80;99.90
68139;DHT22;54940;50.842;4.410;2022-08-01T07:37:51;21.70;99.90
68139;DHT22;54940;50.842;4.410;2022-08-01T07:40:19;21.70;99.90
68139;DHT22;54940;50.842;4.410;2022-08-01T07:42:45;21.80;99.90
68139;DHT22;54940;50.842;4.410;2022-08-01T07:45:12;21.70;99.90
68139;DHT22;54940;50.842;4.410;2022-08-01T07:47:37;21.90;99.90
68139;DHT22;54940;50.842;4.410;2022-08-01T07:50:04;21.90;99.90
68139;DHT22;54940;50.842;4.410;2022-08-01T07:52:31;22.00;99.90
68139;DHT22;54940;50.842;4.410;2022-08-01T07:54:57;22.10;99.90
68139;DHT22;54940;50.842;4.410;2022-08-01T07:57:23;22.10;99.90
68139;DHT22;54940;50.842;4.410;2022-08-01T07:59:49;22.20;99.90
68139;DHT22;54940;50.842;4.410;2022-08-01T08:02:15;22.20;99.90
68139;DHT22;54940;50.842;4.410;2022-08-01T08:04:41;22.40;99.90
68139;DHT22;54940;50.842;4.410;2022-08-01T08:07:07;22.50;99.90
68139;DHT22;54940;50.842;4.410;2022-08-01T08:09:32;22.60;99.90
68139;DHT22;54940;50.842;4.410;2022-08-01T08:11:58;22.80;99.90
68139;DHT22;54940;50.842;4.410;2022-08-01T08:14:24;23.30;99.90
68139;DHT22;54940;50.842;4.410;2022-08-01T08:16:50;23.50;99.90
68139;DHT22;54940;50.842;4.410;2022-08-01T08:19:16;23.90;99.90
68139;DHT22;54940;50.842;4.410;2022-08-01T08:21:42;24.40;99.90
68139;DHT22;54940;50.842;4.410;2022-08-01T08:24:09;24.80;99.20
68139;DHT22;54940;50.842;4.410;2022-08-01T08:26:50;25.00;98.70
68139;DHT22;54940;50.842;4.410;2022-08-01T08:29:17;25.00;97.90
68139;DHT22;54940;50.842;4.410;2022-08-01T08:31:42;24.70;97.80
68139;DHT22;54940;50.842;4.410;2022-08-01T08:34:08;24.40;98.40
68139;DHT22;54940;50.842;4.410;2022-08-01T08:36:35;24.20;98.70
68139;DHT22;54940;50.842;4.410;2022-08-01T08:39:01;24.00;99.70
68139;DHT22;54940;50.842;4.410;2022-08-01T08:41:28;23.90;99.50
68139;DHT22;54940;50.842;4.410;2022-08-01T08:43:54;23.80;99.20
68139;DHT22;54940;50.842;4.410;2022-08-01T08:46:22;23.50;99.40
68139;DHT22;54940;50.842;4.410;2022-08-01T08:48:49;23.60;99.90
68139;DHT22;54940;50.842;4.410;2022-08-01T08:51:17;23.60;99.90
68139;DHT22;54940;50.842;4.410;2022-08-01T08:53:46;23.70;99.20
68139;DHT22;54940;50.842;4.410;2022-08-01T08:56:13;23.90;99.00
68139;DHT22;54940;50.842;4.410;2022-08-01T08:58:41;24.00;97.90
68139;DHT22;54940;50.842;4.410;2022-08-01T09:01:09;24.20;98.40
68139;DHT22;54940;50.842;4.410;2022-08-01T09:03:36;24.30;96.90
68139;DHT22;54940;50.842;4.410;2022-08-01T09:06:02;24.60;97.40
68139;DHT22;54940;50.842;4.410;2022-08-01T09:08:28;24.90;95.70
68139;DHT22;54940;50.842;4.410;2022-08-01T09:10:54;25.20;95.50
68139;DHT22;54940;50.842;4.410;2022-08-01T09:13:19;25.40;96.50
68139;DHT22;54940;50.842;4.410;2022-08-01T09:15:52;25.50;96.70
68139;DHT22;54940;50.842;4.410;2022-08-01T09:18:38;25.60;94.20
68139;DHT22;54940;50.842;4.410;2022-08-01T09:21:14;25.50;94.70
68139;DHT22;54940;50.842;4.410;2022-08-01T09:26:16;25.40;91.90
68139;DHT22;54940;50.842;4.410;2022-08-01T09:28:42;25.40;93.60
68139;DHT22;54940;50.842;4.410;2022-08-01T09:31:19;25.40;92.40
68139;DHT22;54940;50.842;4.410;2022-08-01T09:33:59;25.30;94.80
68139;DHT22;54940;50.842;4.410;2022-08-01T09:36:42;25.20;94.50
68139;DHT22;54940;50.842;4.410;2022-08-01T09:39:13;25.00;95.00
68139;DHT22;54940;50.842;4.410;2022-08-01T09:41:39;25.30;95.40
68139;DHT22;54940;50.842;4.410;2022-08-01T09:44:05;25.30;95.40
68139;DHT22;54940;50.842;4.410;2022-08-01T09:46:31;25.20;94.60
68139;DHT22;54940;50.842;4.410;2022-08-01T09:49:04;25.30;95.20
68139;DHT22;54940;50.842;4.410;2022-08-01T09:51:34;25.40;94.60
68139;DHT22;54940;50.842;4.410;2022-08-01T09:54:01;25.20;95.40
68139;DHT22;54940;50.842;4.410;2022-08-01T09:56:36;25.20;95.00
68139;DHT22;54940;50.842;4.410;2022-08-01T09:59:02;25.10;95.10
68139;DHT22;54940;50.842;4.410;2022-08-01T10:01:37;25.00;95.60
68139;DHT22;54940;50.842;4.410;2022-08-01T10:04:10;25.20;95.50
68139;DHT22;54940;50.842;4.410;2022-08-01T10:06:37;25.70;96.60
68139;DHT22;54940;50.842;4.410;2022-08-01T10:09:03;26.00;92.70
68139;DHT22;54940;50.842;4.410;2022-08-01T10:11:29;26.30;94.60
68139;DHT22;54940;50.842;4.410;2022-08-01T10:13:56;26.50;93.00
68139;DHT22;54940;50.842;4.410;2022-08-01T10:16:25;26.50;90.30
68139;DHT22;54940;50.842;4.410;2022-08-01T10:18:52;26.10;90.20
68139;DHT22;54940;50.842;4.410;2022-08-01T10:21:20;25.80;90.70
68139;DHT22;54940;50.842;4.410;2022-08-01T10:23:48;25.50;92.40
68139;DHT22;54940;50.842;4.410;2022-08-01T10:26:14;25.40;92.20
68139;DHT22;54940;50.842;4.410;2022-08-01T10:28:44;25.40;91.80
68139;DHT22;54940;50.842;4.410;2022-08-01T10:31:11;25.40;94.30
68139;DHT22;54940;50.842;4.410;2022-08-01T10:33:37;25.50;93.30
68139;DHT22;54940;50.842;4.410;2022-08-01T10:36:05;25.60;93.70
68139;DHT22;54940;50.842;4.410;2022-08-01T10:38:31;25.60;92.30
68139;DHT22;54940;50.842;4.410;2022-08-01T10:40:57;25.60;93.20
68139;DHT22;54940;50.842;4.410;2022-08-01T10:43:24;25.70;92.30
68139;DHT22;54940;50.842;4.410;2022-08-01T10:45:50;25.70;91.60
68139;DHT22;54940;50.842;4.410;2022-08-01T10:48:29;25.60;92.00
68139;DHT22;54940;50.842;4.410;2022-08-01T10:51:00;25.70;92.40
68139;DHT22;54940;50.842;4.410;2022-08-01T10:53:27;26.00;92.90
68139;DHT22;54940;50.842;4.410;2022-08-01T10:58:23;26.20;92.50
68139;DHT22;54940;50.842;4.410;2022-08-01T11:04:07;26.60;90.80
68139;DHT22;54940;50.842;4.410;2022-08-01T11:09:19;26.60;91.50
68139;DHT22;54940;50.842;4.410;2022-08-01T11:12:05;26.80;91.00
68139;DHT22;54940;50.842;4.410;2022-08-01T11:14:35;26.90;90.20
68139;DHT22;54940;50.842;4.410;2022-08-01T11:30:52;27.80;88.50
68139;DHT22;54940;50.842;4.410;2022-08-01T11:33:47;28.10;83.30
68139;DHT22;54940;50.842;4.410;2022-08-01T11:41:17;28.20;84.50
68139;DHT22;54940;50.842;4.410;2022-08-01T11:46:54;28.10;80.20
68139;DHT22;54940;50.842;4.410;2022-08-01T11:52:13;28.60;84.30
68139;DHT22;54940;50.842;4.410;2022-08-01T11:54:52;28.70;82.90
68139;DHT22;54940;50.842;4.410;2022-08-01T11:57:27;28.70;81.70
68139;DHT22;54940;50.842;4.410;2022-08-01T11:59:57;28.70;82.80
68139;DHT22;54940;50.842;4.410;2022-08-01T12:02:28;28.60;83.40
68139;DHT22;54940;50.842;4.410;2022-08-01T12:07:29;28.40;83.60
68139;DHT22;54940;50.842;4.410;2022-08-01T12:10:04;28.50;81.10
68139;DHT22;54940;50.842;4.410;2022-08-01T12:12:32;28.40;79.70
68139;DHT22;54940;50.842;4.410;2022-08-01T12:15:00;28.40;82.50
68139;DHT22;54940;50.842;4.410;2022-08-01T12:17:40;28.60;83.90
68139;DHT22;54940;50.842;4.410;2022-08-01T12:20:09;28.50;80.40
68139;DHT22;54940;50.842;4.410;2022-08-01T12:22:36;28.30;82.70
68139;DHT22;54940;50.842;4.410;2022-08-01T12:25:16;28.20;79.20
68139;DHT22;54940;50.842;4.410;2022-08-01T12:27:43;28.20;80.00
68139;DHT22;54940;50.842;4.410;2022-08-01T12:30:14;28.20;82.90
68139;DHT22;54940;50.842;4.410;2022-08-01T12:32:42;28.30;82.70
68139;DHT22;54940;50.842;4.410;2022-08-01T12:37:38;28.70;82.20
68139;DHT22;54940;50.842;4.410;2022-08-01T12:42:44;29.30;77.80
68139;DHT22;54940;50.842;4.410;2022-08-01T12:45:13;29.20;74.40
68139;DHT22;54940;50.842;4.410;2022-08-01T12:47:39;28.80;77.30
68139;DHT22;54940;50.842;4.410;2022-08-01T12:50:16;28.60;78.00
68139;DHT22;54940;50.842;4.410;2022-08-01T12:52:42;28.30;77.10
68139;DHT22;54940;50.842;4.410;2022-08-01T12:55:21;28.20;77.70
68139;DHT22;54940;50.842;4.410;2022-08-01T12:58:10;28.00;79.60
68139;DHT22;54940;50.842;4.410;2022-08-01T13:00:38;27.70;78.20
68139;DHT22;54940;50.842;4.410;2022-08-01T13:03:15;27.70;79.40
68139;DHT22;54940;50.842;4.410;2022-08-01T13:05:58;27.80;77.10
68139;DHT22;54940;50.842;4.410;2022-08-01T13:08:33;28.00;77.40
68139;DHT22;54940;50.842;4.410;2022-08-01T13:11:04;27.90;78.60
68139;DHT22;54940;50.842;4.410;2022-08-01T13:13:47;27.70;75.30
68139;DHT22;54940;50.842;4.410;2022-08-01T13:16:14;27.50;79.40
68139;DHT22;54940;50.842;4.410;2022-08-01T13:18:40;27.60;80.20
68139;DHT22;54940;50.842;4.410;2022-08-01T13:21:24;27.80;78.10
68139;DHT22;54940;50.842;4.410;2022-08-01T13:24:11;27.50;79.20
68139;DHT22;54940;50.842;4.410;2022-08-01T13:26:44;27.30;77.40
68139;DHT22;54940;50.842;4.410;2022-08-01T13:29:12;27.30;79.30
68139;DHT22;54940;50.842;4.410;2022-08-01T13:31:39;27.30;78.70
68139;DHT22;54940;50.842;4.410;2022-08-01T13:34:06;27.60;79.30
68139;DHT22;54940;50.842;4.410;2022-08-01T13:36:31;27.80;79.50
68139;DHT22;54940;50.842;4.410;2022-08-01T13:38:58;27.80;77.30
68139;DHT22;54940;50.842;4.410;2022-08-01T13:41:43;27.60;77.30
68139;DHT22;54940;50.842;4.410;2022-08-01T13:44:09;27.40;78.60
68139;DHT22;54940;50.842;4.410;2022-08-01T13:46:37;27.20;76.10
68139;DHT22;54940;50.842;4.410;2022-08-01T13:49:04;27.30;78.20
68139;DHT22;54940;50.842;4.410;2022-08-01T13:51:30;27.20;79.10
68139;DHT22;54940;50.842;4.410;2022-08-01T13:53:56;27.00;78.20
68139;DHT22;54940;50.842;4.410;2022-08-01T13:56:22;26.90;79.00
68139;DHT22;54940;50.842;4.410;2022-08-01T13:58:48;27.10;76.20
68139;DHT22;54940;50.842;4.410;2022-08-01T14:01:14;27.40;78.00
68139;DHT22;54940;50.842;4.410;2022-08-01T14:03:40;27.70;79.40
68139;DHT22;54940;50.842;4.410;2022-08-01T14:06:06;27.90;74.60
68139;DHT22;54940;50.842;4.410;2022-08-01T14:08:31;28.10;72.00
68139;DHT22;54940;50.842;4.410;2022-08-01T14:10:57;28.20;75.50
68139;DHT22;54940;50.842;4.410;2022-08-01T14:13:25;28.30;72.00
68139;DHT22;54940;50.842;4.410;2022-08-01T14:15:51;28.30;73.10
68139;DHT22;54940;50.842;4.410;2022-08-01T14:18:17;28.20;70.50
68139;DHT22;54940;50.842;4.410;2022-08-01T14:20:43;28.20;75.00
68139;DHT22;54940;50.842;4.410;2022-08-01T14:23:09;28.30;73.40
68139;DHT22;54940;50.842;4.410;2022-08-01T14:25:39;28.20;71.10
68139;DHT22;54940;50.842;4.410;2022-08-01T14:28:05;28.20;72.20
68139;DHT22;54940;50.842;4.410;2022-08-01T14:30:32;28.30;74.50
68139;DHT22;54940;50.842;4.410;2022-08-01T14:32:58;28.30;73.10
68139;DHT22;54940;50.842;4.410;2022-08-01T14:35:23;28.10;73.10
68139;DHT22;54940;50.842;4.410;2022-08-01T14:37:49;27.80;71.40
68139;DHT22;54940;50.842;4.410;2022-08-01T14:40:15;27.50;74.10
68139;DHT22;54940;50.842;4.410;2022-08-01T14:42:41;27.30;74.10
68139;DHT22;54940;50.842;4.410;2022-08-01T14:45:09;27.00;75.50
68139;DHT22;54940;50.842;4.410;2022-08-01T14:47:36;26.90;75.40
68139;DHT22;54940;50.842;4.410;2022-08-01T14:50:04;26.90;74.70
68139;DHT22;54940;50.842;4.410;2022-08-01T14:52:32;27.20;75.30
68139;DHT22;54940;50.842;4.410;2022-08-01T14:54:57;27.40;75.60
68139;DHT22;54940;50.842;4.410;2022-08-01T14:57:23;27.60;74.10
68139;DHT22;54940;50.842;4.410;2022-08-01T14:59:49;27.70;73.60
68139;DHT22;54940;50.842;4.410;2022-08-01T15:02:15;27.70;71.90
68139;DHT22;54940;50.842;4.410;2022-08-01T15:04:43;27.90;74.40
68139;DHT22;54940;50.842;4.410;2022-08-01T15:07:09;27.70;71.60
68139;DHT22;54940;50.842;4.410;2022-08-01T15:09:35;27.70;71.40
68139;DHT22;54940;50.842;4.410;2022-08-01T15:12:01;27.70;74.60
68139;DHT22;54940;50.842;4.410;2022-08-01T15:14:27;27.80;72.10
68139;DHT22;54940;50.842;4.410;2022-08-01T15:17:11;28.00;70.90
68139;DHT22;54940;50.842;4.410;2022-08-01T15:19:37;28.10;69.50
68139;DHT22;54940;50.842;4.410;2022-08-01T15:22:03;28.00;69.70
68139;DHT22;54940;50.842;4.410;2022-08-01T15:24:29;28.00;70.50
68139;DHT22;54940;50.842;4.410;2022-08-01T15:26:54;28.10;71.10
68139;DHT22;54940;50.842;4.410;2022-08-01T15:29:20;27.90;69.40
68139;DHT22;54940;50.842;4.410;2022-08-01T15:31:46;27.70;72.60
68139;DHT22;54940;50.842;4.410;2022-08-01T15:34:11;27.40;72.60
68139;DHT22;54940;50.842;4.410;2022-08-01T15:36:37;27.20;73.30
68139;DHT22;54940;50.842;4.410;2022-08-01T15:39:03;27.20;73.50
68139;DHT22;54940;50.842;4.410;2022-08-01T15:41:28;27.10;74.20
68139;DHT22;54940;50.842;4.410;2022-08-01T15:43:54;26.90;72.00
68139;DHT22;54940;50.842;4.410;2022-08-01T15:46:20;27.00;74.20
68139;DHT22;54940;50.842;4.410;2022-08-01T15:48:45;27.00;72.90
68139;DHT22;54940;50.842;4.410;2022-08-01T15:51:11;27.10;73.90
68139;DHT22;54940;50.842;4.410;2022-08-01T15:53:37;27.10;71.30
68139;DHT22;54940;50.842;4.410;2022-08-01T15:56:02;26.90;74.00
68139;DHT22;54940;50.842;4.410;2022-08-01T15:58:28;26.80;72.30
68139;DHT22;54940;50.842;4.410;2022-08-01T16:00:54;26.70;71.50
68139;DHT22;54940;50.842;4.410;2022-08-01T16:03:20;26.60;72.80
68139;DHT22;54940;50.842;4.410;2022-08-01T16:05:46;26.80;74.60
68139;DHT22;54940;50.842;4.410;2022-08-01T16:08:14;26.80;73.60
68139;DHT22;54940;50.842;4.410;2022-08-01T16:10:40;26.80;74.50
68139;DHT22;54940;50.842;4.410;2022-08-01T16:13:06;26.90;72.70
68139;DHT22;54940;50.842;4.410;2022-08-01T16:15:32;26.90;72.40
68139;DHT22;54940;50.842;4.410;2022-08-01T16:17:58;26.80;72.40
68139;DHT22;54940;50.842;4.410;2022-08-01T16:20:23;26.90;73.30
68139;DHT22;54940;50.842;4.410;2022-08-01T16:22:49;26.90;72.00
68139;DHT22;54940;50.842;4.410;2022-08-01T16:25:14;26.90;69.20
68139;DHT22;54940;50.842;4.410;2022-08-01T16:27:41;26.70;71.80